Time;durP1;ratioP1;P1;durP2;ratioP2;P2;SDS_P1;SDS_P2;PMS_P1;PMS_P2;Temp;Humidity;BMP_temperature;BMP_pressure;BME280_temperature;BME280_humidity;BME280_pressure;Samples;Min_cycle;Max_cycle;Signal;HPM_P1;HPM_P2
2021/01/31 00:00:14;;;;;;;10.83;9.93;;;4.30;58.50;;;;;;5052614;28;20270;-72
2021/01/31 00:02:40;;;;;;;12.60;11.50;;;4.30;58.80;;;;;;5053307;28;20921;-72
2021/01/31 00:05:06;;;;;;;14.17;11.47;;;4.20;59.40;;;;;;5052779;28;20206;-73
2021/01/31 00:07:32;;;;;;;15.57;14.02;;;4.20;59.30;;;;;;5053392;28;20636;-73
2021/01/31 00:09:57;;;;;;;10.80;9.77;;;4.20;59.60;;;;;;5034886;28;20182;-73
2021/01/31 00:12:23;;;;;;;11.67;9.50;;;4.20;60.00;;;;;;5053187;28;20692;-73
2021/01/31 00:14:49;;;;;;;11.30;10.03;;;4.20;59.50;;;;;;5034982;28;20218;-72
2021/01/31 00:17:14;;;;;;;11.50;10.43;;;4.20;59.50;;;;;;5057838;28;20451;-74
2021/01/31 00:19:40;;;;;;;10.70;9.80;;;4.10;59.50;;;;;;5057061;28;20229;-73
2021/01/31 00:22:05;;;;;;;12.13;10.97;;;4.00;60.10;;;;;;5053142;28;20232;-72
2021/01/31 00:24:31;;;;;;;11.53;10.53;;;4.00;59.40;;;;;;5052818;28;20717;-73
2021/01/31 00:26:57;;;;;;;10.13;8.63;;;4.00;59.60;;;;;;5052702;28;20187;-73
2021/01/31 00:29:23;;;;;;;8.82;8.02;;;4.00;59.10;;;;;;5052425;28;20476;-73
2021/01/31 00:31:49;;;;;;;8.40;7.60;;;3.90;58.10;;;;;;5034797;28;20651;-73
2021/01/31 00:34:17;;;;;;;8.18;7.40;;;3.80;58.10;;;;;;5051932;28;20298;-73
2021/01/31 00:36:44;;;;;;;9.20;8.40;;;3.80;58.50;;;;;;5034667;28;20210;-73
2021/01/31 00:39:10;;;;;;;10.32;9.32;;;3.70;59.60;;;;;;5051935;28;20270;-73
2021/01/31 00:41:37;;;;;;;7.97;7.28;;;3.80;59.00;;;;;;5053097;28;20270;-73
2021/01/31 00:44:07;;;;;;;7.50;6.75;;;3.80;59.10;;;;;;5034796;28;20198;-73
2021/01/31 00:46:39;;;;;;;9.68;7.22;;;3.70;58.80;;;;;;5034753;28;20203;-73
2021/01/31 00:49:08;;;;;;;8.65;7.95;;;3.70;59.10;;;;;;5051973;28;20266;-72
2021/01/31 00:51:33;;;;;;;7.60;6.93;;;3.70;59.10;;;;;;5053861;28;20200;-73
2021/01/31 00:53:59;;;;;;;10.53;6.50;;;3.70;59.00;;;;;;5052823;28;20190;-73
2021/01/31 00:56:24;;;;;;;4.70;4.30;;;3.70;59.00;;;;;;5052889;28;20179;-73
2021/01/31 00:58:50;;;;;;;6.60;5.93;;;3.60;58.30;;;;;;5051203;28;20184;-73
2021/01/31 01:01:17;;;;;;;5.47;5.07;;;3.60;58.20;;;;;;5051791;28;20260;-73
2021/01/31 01:03:43;;;;;;;5.88;5.18;;;3.50;57.90;;;;;;5051582;28;20226;-72
2021/01/31 01:06:09;;;;;;;7.63;6.72;;;3.50;58.20;;;;;;5051596;28;20206;-72
2021/01/31 01:08:34;;;;;;;7.05;6.45;;;3.40;58.70;;;;;;5052029;28;20262;-72
2021/01/31 01:11:00;;;;;;;5.07;4.40;;;3.40;58.50;;;;;;5033053;28;20261;-73
2021/01/31 01:13:26;;;;;;;4.97;4.67;;;3.50;58.20;;;;;;5051411;28;20199;-73
2021/01/31 01:15:52;;;;;;;5.43;5.03;;;3.40;58.00;;;;;;5052076;28;20998;-73
2021/01/31 01:18:18;;;;;;;5.30;4.80;;;3.40;58.60;;;;;;5051625;28;20413;-72
2021/01/31 01:20:43;;;;;;;5.23;4.80;;;3.50;58.70;;;;;;5051253;28;20771;-73
2021/01/31 01:23:09;;;;;;;4.80;4.47;;;3.50;58.30;;;;;;5053058;28;20439;-73
2021/01/31 01:25:35;;;;;;;7.83;4.77;;;3.40;58.20;;;;;;5051472;28;20202;-73
2021/01/31 01:28:00;;;;;;;7.73;5.80;;;3.50;58.30;;;;;;5033462;28;20186;-73
2021/01/31 01:30:29;;;;;;;4.83;4.33;;;3.50;58.00;;;;;;5033805;28;20182;-73
2021/01/31 01:32:55;;;;;;;5.70;5.28;;;3.50;58.00;;;;;;5033308;28;20183;-73
2021/01/31 01:35:21;;;;;;;5.50;5.00;;;3.60;57.60;;;;;;5051344;28;20179;-73
2021/01/31 01:37:48;;;;;;;6.22;5.72;;;3.60;57.70;;;;;;5034119;28;20182;-73
2021/01/31 01:40:27;;;;;;;3.58;3.28;;;3.60;58.00;;;;;;5050645;28;20174;-73
2021/01/31 01:42:52;;;;;;;5.35;4.95;;;3.60;56.70;;;;;;5052199;28;20328;-73
2021/01/31 01:45:20;;;;;;;5.03;4.53;;;3.60;56.80;;;;;;5051532;28;20215;-73
2021/01/31 01:47:48;;;;;;;5.50;5.00;;;3.50;57.30;;;;;;5051024;28;20563;-72
2021/01/31 01:50:32;;;;;;;5.25;4.25;;;3.50;57.30;;;;;;5050820;28;20173;-73
2021/01/31 01:52:59;;;;;;;4.38;4.05;;;3.60;57.20;;;;;;5033683;28;20197;-72
2021/01/31 01:55:27;;;;;;;5.30;4.80;;;3.60;56.70;;;;;;5034209;28;20185;-73
2021/01/31 01:57:59;;;;;;;3.80;3.55;;;3.70;56.80;;;;;;5051052;28;20865;-73
2021/01/31 02:00:25;;;;;;;4.47;4.05;;;3.60;56.70;;;;;;5050164;28;20185;-73
2021/01/31 02:03:02;;;;;;;4.93;4.40;;;3.70;56.80;;;;;;5051574;28;20658;-73
2021/01/31 02:05:28;;;;;;;4.10;3.80;;;3.70;56.20;;;;;;5053141;28;20219;-73
2021/01/31 02:07:54;;;;;;;4.95;4.47;;;3.80;55.90;;;;;;5051412;28;20203;-73
2021/01/31 02:10:23;;;;;;;4.80;3.83;;;3.80;55.20;;;;;;5050278;28;20256;-73
2021/01/31 02:12:51;;;;;;;5.38;4.95;;;3.70;55.00;;;;;;5050795;28;20180;-73
2021/01/31 02:15:19;;;;;;;5.05;4.68;;;3.70;55.10;;;;;;5036960;28;20194;-73
2021/01/31 02:18:22;;;;;;;5.05;4.65;;;3.70;55.40;;;;;;5053098;28;20206;-73
2021/01/31 02:21:15;;;;;;;6.35;4.53;;;3.70;54.70;;;;;;5050104;28;20181;-73
2021/01/31 02:24:09;;;;;;;6.60;6.03;;;3.70;54.60;;;;;;5050566;28;20201;-73
2021/01/31 02:26:59;;;;;;;5.82;5.32;;;3.60;55.00;;;;;;5052836;28;20241;-73
2021/01/31 02:29:31;;;;;;;7.15;6.50;;;3.50;55.40;;;;;;5049967;28;20572;-73
2021/01/31 02:32:38;;;;;;;9.63;8.73;;;3.40;56.10;;;;;;5033201;28;20218;-72
2021/01/31 02:35:13;;;;;;;8.23;7.50;;;3.40;56.50;;;;;;5029610;28;20228;-73
2021/01/31 02:38:07;;;;;;;7.63;6.88;;;3.40;56.50;;;;;;5050667;28;20186;-73
2021/01/31 02:40:41;;;;;;;8.65;7.95;;;3.40;56.40;;;;;;5051524;28;20203;-73
2021/01/31 02:43:12;;;;;;;8.82;8.02;;;3.40;56.50;;;;;;5033654;28;20215;-72
2021/01/31 02:45:43;;;;;;;12.88;8.95;;;3.40;56.50;;;;;;5051726;28;20225;-72
2021/01/31 02:48:23;;;;;;;10.20;9.30;;;3.30;56.50;;;;;;5050402;28;20607;-73
2021/01/31 02:50:58;;;;;;;14.13;10.30;;;3.30;56.50;;;;;;5049578;28;20598;-73
2021/01/31 02:53:26;;;;;;;11.38;9.23;;;3.40;56.50;;;;;;5050142;28;20194;-73
2021/01/31 02:56:04;;;;;;;10.02;9.07;;;3.40;56.60;;;;;;5034077;28;20277;-73
2021/01/31 02:58:36;;;;;;;10.63;9.70;;;3.40;56.50;;;;;;5053969;28;20265;-73
2021/01/31 03:01:47;;;;;;;11.15;10.05;;;3.40;56.60;;;;;;5053690;28;20282;-73
2021/01/31 03:04:24;;;;;;;13.18;11.98;;;3.40;56.50;;;;;;5040617;28;20318;-73
2021/01/31 03:06:55;;;;;;;13.43;12.23;;;3.40;56.60;;;;;;5054158;28;20229;-72
2021/01/31 03:09:37;;;;;;;14.07;12.65;;;3.40;56.50;;;;;;5035667;28;20273;-73
2021/01/31 03:12:09;;;;;;;12.18;10.98;;;3.30;56.50;;;;;;5053877;28;20171;-73
2021/01/31 03:14:42;;;;;;;14.18;12.80;;;3.30;56.50;;;;;;5035729;28;20305;-72
2021/01/31 03:17:11;;;;;;;16.10;11.73;;;3.30;56.50;;;;;;5054476;28;20176;-73
2021/01/31 03:19:45;;;;;;;13.02;11.98;;;3.30;56.50;;;;;;5055181;28;20254;-73
2021/01/31 03:22:16;;;;;;;13.57;12.20;;;3.30;56.50;;;;;;5053971;28;20525;-72
2021/01/31 03:24:49;;;;;;;13.45;12.25;;;3.30;56.50;;;;;;5053955;28;20194;-72
2021/01/31 03:27:28;;;;;;;12.27;11.07;;;3.30;56.50;;;;;;5053766;28;20175;-73
2021/01/31 03:29:54;;;;;;;11.35;10.52;;;3.30;56.50;;;;;;5053509;28;20186;-73
2021/01/31 03:32:41;;;;;;;13.30;12.10;;;3.20;56.40;;;;;;5053687;28;20175;-73
2021/01/31 03:35:10;;;;;;;14.00;12.57;;;3.20;56.40;;;;;;5054532;28;20218;-73
2021/01/31 03:38:02;;;;;;;18.75;12.02;;;3.20;56.40;;;;;;5036725;28;20213;-73
2021/01/31 03:40:28;;;;;;;12.73;11.40;;;3.10;56.30;;;;;;5054616;28;20182;-73
2021/01/31 03:42:54;;;;;;;10.75;9.63;;;3.20;56.40;;;;;;5053358;28;20185;-72
2021/01/31 03:45:33;;;;;;;16.03;12.13;;;3.10;56.30;;;;;;5055187;28;20202;-73
2021/01/31 03:48:05;;;;;;;14.68;11.63;;;3.10;56.30;;;;;;5053426;28;20189;-73
2021/01/31 03:50:30;;;;;;;10.07;9.10;;;3.00;56.20;;;;;;5052634;28;20235;-72
2021/01/31 03:52:57;;;;;;;10.60;9.40;;;3.00;56.20;;;;;;5053158;28;20257;-73
2021/01/31 03:55:23;;;;;;;9.77;8.77;;;3.00;56.20;;;;;;5035284;28;20421;-73
2021/01/31 03:57:55;;;;;;;10.97;9.87;;;2.90;56.10;;;;;;5053185;28;20174;-73
2021/01/31 04:00:27;;;;;;;12.90;11.75;;;2.90;56.10;;;;;;5037292;28;20644;-72
2021/01/31 04:03:12;;;;;;;11.23;10.15;;;2.80;56.40;;;;;;5052927;28;20182;-73
2021/01/31 04:05:47;;;;;;;11.75;10.70;;;2.80;56.40;;;;;;5052877;28;20206;-73
2021/01/31 04:08:15;;;;;;;9.70;8.80;;;2.80;56.30;;;;;;5052590;28;20182;-72
2021/01/31 04:10:44;;;;;;;10.40;9.50;;;2.80;56.00;;;;;;5036597;28;20208;-73
2021/01/31 04:13:11;;;;;;;9.35;8.45;;;2.90;56.10;;;;;;5061004;28;20593;-73
2021/01/31 04:15:58;;;;;;;9.48;8.70;;;2.90;56.10;;;;;;5054760;28;20179;-73
2021/01/31 04:18:24;;;;;;;8.88;7.78;;;2.90;56.20;;;;;;5034821;28;20257;-73
2021/01/31 04:20:51;;;;;;;10.93;9.93;;;3.00;56.20;;;;;;5052062;28;20683;-73
2021/01/31 04:23:17;;;;;;;7.90;7.10;;;3.20;56.40;;;;;;5053794;28;20194;-72
2021/01/31 04:25:44;;;;;;;9.65;8.70;;;3.20;56.20;;;;;;5052740;28;20633;-73
2021/01/31 04:28:16;;;;;;;9.82;8.82;;;3.30;55.70;;;;;;5052481;28;20210;-73
2021/01/31 04:30:43;;;;;;;9.50;8.05;;;3.40;55.10;;;;;;5051726;28;20262;-72
2021/01/31 04:33:10;;;;;;;9.23;8.52;;;3.50;54.30;;;;;;5053262;28;20257;-73
2021/01/31 04:35:36;;;;;;;8.98;8.13;;;3.50;53.70;;;;;;5052488;28;20269;-73
2021/01/31 04:38:02;;;;;;;8.03;7.43;;;3.60;53.30;;;;;;5035334;28;20220;-73
2021/01/31 04:40:29;;;;;;;8.82;7.93;;;3.50;53.30;;;;;;5053802;28;20210;-73
2021/01/31 04:42:55;;;;;;;9.27;8.35;;;3.40;52.90;;;;;;5034168;28;20178;-72
2021/01/31 04:45:21;;;;;;;10.57;9.47;;;3.40;52.00;;;;;;5034212;28;20257;-73
2021/01/31 04:47:46;;;;;;;8.47;7.77;;;3.30;52.00;;;;;;5034698;28;20448;-72
2021/01/31 04:50:27;;;;;;;11.10;10.10;;;3.20;52.50;;;;;;5051383;28;20632;-73
2021/01/31 04:53:06;;;;;;;13.55;10.05;;;3.20;52.90;;;;;;5052068;28;20496;-73
2021/01/31 04:55:44;;;;;;;10.20;9.20;;;3.20;53.30;;;;;;5052210;28;20198;-73
2021/01/31 04:58:31;;;;;;;12.70;10.90;;;3.10;52.90;;;;;;5034082;28;20182;-73
2021/01/31 05:01:02;;;;;;;12.43;11.20;;;3.00;53.40;;;;;;5033465;28;20178;-72
2021/01/31 05:03:29;;;;;;;16.67;12.55;;;2.90;54.20;;;;;;5034794;28;20198;-72
2021/01/31 05:06:10;;;;;;;14.75;13.25;;;2.90;54.40;;;;;;5051748;28;20303;-73
2021/01/31 05:08:35;;;;;;;13.15;11.85;;;2.90;55.00;;;;;;5051578;28;20181;-73
2021/01/31 05:11:29;;;;;;;15.13;13.53;;;2.80;54.80;;;;;;5051832;28;20170;-73
2021/01/31 05:14:14;;;;;;;13.25;11.95;;;2.90;55.50;;;;;;5050163;28;20249;-71
2021/01/31 05:16:40;;;;;;;16.00;13.30;;;2.90;55.40;;;;;;5064540;28;20175;-73
2021/01/31 05:19:12;;;;;;;14.20;12.73;;;2.90;55.20;;;;;;5064672;28;20246;-74
2021/01/31 05:21:38;;;;;;;16.60;14.55;;;2.90;55.00;;;;;;5063980;28;20185;-74
2021/01/31 05:24:05;;;;;;;16.90;14.10;;;2.90;55.10;;;;;;5045213;28;20202;-71
2021/01/31 05:26:35;;;;;;;16.33;14.70;;;2.90;55.30;;;;;;5064094;28;20299;-73
2021/01/31 05:29:03;;;;;;;14.07;12.80;;;2.90;55.50;;;;;;5063304;28;20178;-74
2021/01/31 05:31:33;;;;;;;15.05;13.50;;;2.90;56.10;;;;;;5062531;28;20175;-74
2021/01/31 05:34:00;;;;;;;17.80;12.75;;;2.90;56.10;;;;;;5046428;28;20220;-73
2021/01/31 05:36:28;;;;;;;15.88;14.27;;;3.00;56.20;;;;;;5046208;28;20184;-74
2021/01/31 05:38:54;;;;;;;15.13;13.80;;;3.10;55.80;;;;;;5061631;28;20182;-73
2021/01/31 05:41:40;;;;;;;14.13;12.43;;;3.20;55.70;;;;;;5061931;28;20182;-71
2021/01/31 05:44:14;;;;;;;14.88;13.48;;;3.20;55.00;;;;;;5061643;28;20429;-72
2021/01/31 05:46:59;;;;;;;19.20;12.98;;;3.20;55.00;;;;;;5062832;28;20208;-72
2021/01/31 05:49:38;;;;;;;13.73;12.25;;;3.30;54.60;;;;;;5062875;28;20179;-73
2021/01/31 05:52:26;;;;;;;13.13;11.85;;;3.40;54.00;;;;;;5061609;28;20167;-73
2021/01/31 05:54:53;;;;;;;17.40;12.05;;;3.40;53.50;;;;;;5062344;28;20197;-72
2021/01/31 05:57:30;;;;;;;14.63;13.20;;;3.50;53.40;;;;;;5061720;28;20182;-73
2021/01/31 05:59:57;;;;;;;16.42;12.85;;;3.50;52.80;;;;;;5043872;28;20182;-73
2021/01/31 06:02:29;;;;;;;12.60;11.30;;;3.50;52.80;;;;;;5064738;28;20175;-73
2021/01/31 06:05:15;;;;;;;16.55;12.60;;;3.50;53.00;;;;;;5061528;28;20204;-73
2021/01/31 06:07:42;;;;;;;12.52;11.50;;;3.50;53.00;;;;;;5062736;28;20174;-74
2021/01/31 06:10:17;;;;;;;13.20;11.13;;;3.60;53.00;;;;;;5061753;28;20176;-73
2021/01/31 06:12:48;;;;;;;14.18;12.82;;;3.60;52.80;;;;;;5062026;28;20178;-74
2021/01/31 06:15:40;;;;;;;14.73;13.15;;;3.60;52.20;;;;;;5062745;28;20205;-73
2021/01/31 06:18:14;;;;;;;14.07;11.45;;;3.70;52.60;;;;;;5061640;28;20553;-73
2021/01/31 06:20:42;;;;;;;14.82;13.07;;;3.70;52.70;;;;;;5060789;28;20186;-73
2021/01/31 06:23:19;;;;;;;16.35;14.77;;;3.70;52.20;;;;;;5043589;28;20220;-73
2021/01/31 06:25:44;;;;;;;17.38;14.93;;;3.70;52.00;;;;;;5063767;28;20204;-71
2021/01/31 06:28:15;;;;;;;16.07;14.40;;;3.70;52.00;;;;;;5047928;28;20203;-73
2021/01/31 06:31:08;;;;;;;15.82;14.43;;;3.60;51.90;;;;;;5064981;28;20259;-73
2021/01/31 06:33:33;;;;;;;15.48;13.88;;;3.60;52.30;;;;;;5068627;28;20266;-73
2021/01/31 06:36:19;;;;;;;15.93;13.23;;;3.50;52.70;;;;;;5069422;28;20191;-73
2021/01/31 06:39:14;;;;;;;14.75;13.20;;;3.40;53.20;;;;;;5067162;28;20272;-71
2021/01/31 06:41:56;;;;;;;16.75;14.88;;;3.30;54.10;;;;;;5067057;28;20182;-74
2021/01/31 06:44:34;;;;;;;18.88;15.57;;;3.20;55.20;;;;;;5066398;28;20269;-73
2021/01/31 06:47:20;;;;;;;23.10;18.63;;;3.10;56.30;;;;;;5048769;28;20710;-73
2021/01/31 06:50:07;;;;;;;21.23;17.30;;;3.00;56.20;;;;;;5065114;28;20166;-71
2021/01/31 06:52:36;;;;;;;21.13;16.55;;;3.00;56.40;;;;;;5047635;28;20174;-72
2021/01/31 06:55:31;;;;;;;22.13;19.85;;;3.00;56.70;;;;;;5048817;28;20202;-73
2021/01/31 06:58:24;;;;;;;19.60;17.63;;;2.90;56.10;;;;;;5066489;28;20176;-73
2021/01/31 07:01:10;;;;;;;23.58;19.05;;;2.90;56.20;;;;;;5068249;28;20179;-72
2021/01/31 07:03:48;;;;;;;27.83;19.20;;;3.00;56.30;;;;;;5068071;28;20195;-74
2021/01/31 07:06:43;;;;;;;19.05;17.20;;;3.10;56.30;;;;;;5051137;28;20202;-73
2021/01/31 07:09:17;;;;;;;20.10;18.10;;;3.10;56.30;;;;;;5049775;28;20192;-72
2021/01/31 07:12:05;;;;;;;18.33;15.20;;;3.10;56.30;;;;;;5068169;28;20186;-74
2021/01/31 07:14:59;;;;;;;21.00;16.55;;;3.00;56.20;;;;;;5064595;28;20210;-74
2021/01/31 07:17:39;;;;;;;21.83;19.00;;;3.10;56.30;;;;;;5048625;28;20178;-71
2021/01/31 07:20:07;;;;;;;17.85;16.13;;;3.10;56.30;;;;;;5049570;28;20187;-73
2021/01/31 07:22:45;;;;;;;21.30;19.33;;;3.10;56.30;;;;;;5050946;28;20176;-73
2021/01/31 07:25:29;;;;;;;16.98;15.23;;;3.10;56.30;;;;;;5055439;28;20270;-72
2021/01/31 07:28:06;;;;;;;20.73;18.60;;;3.20;56.40;;;;;;5037328;28;20171;-71
2021/01/31 07:30:41;;;;;;;17.40;15.55;;;3.20;56.40;;;;;;5053274;28;20171;-73
2021/01/31 07:33:18;;;;;;;19.20;17.27;;;3.20;56.40;;;;;;5055079;28;20192;-71
2021/01/31 07:36:02;;;;;;;23.45;18.05;;;3.30;56.50;;;;;;5055012;28;20222;-70
2021/01/31 07:38:44;;;;;;;21.27;15.77;;;3.40;56.10;;;;;;5036770;28;20202;-71
2021/01/31 07:41:13;;;;;;;18.88;16.98;;;3.40;55.70;;;;;;5053721;28;20204;-71
2021/01/31 07:43:39;;;;;;;19.85;17.80;;;3.50;55.50;;;;;;5032415;28;20241;-72
2021/01/31 07:46:08;;;;;;;18.27;16.05;;;3.50;55.30;;;;;;5053894;28;20294;-71
2021/01/31 07:48:50;;;;;;;17.25;15.50;;;3.50;55.20;;;;;;5063448;28;20179;-72
2021/01/31 07:51:26;;;;;;;20.95;18.40;;;3.40;54.60;;;;;;5065718;28;20190;-72
2021/01/31 07:53:53;;;;;;;20.02;18.02;;;3.40;55.10;;;;;;5050793;28;20225;-74
2021/01/31 07:56:34;;;;;;;16.00;14.50;;;3.40;55.10;;;;;;5050963;28;20246;-72
2021/01/31 07:59:20;;;;;;;21.33;16.17;;;3.40;54.90;;;;;;5054706;28;20213;-74
2021/01/31 08:01:52;;;;;;;19.17;16.10;;;3.40;55.10;;;;;;5063211;28;20705;-72
2021/01/31 08:04:17;;;;;;;17.70;15.85;;;3.40;55.90;;;;;;5048396;28;20205;-70
2021/01/31 08:06:56;;;;;;;18.70;16.90;;;3.50;54.20;;;;;;5085421;28;20213;-72
2021/01/31 08:09:28;;;;;;;17.52;15.73;;;3.60;54.60;;;;;;5040894;28;20182;-70
2021/01/31 08:12:11;;;;;;;20.40;14.43;;;3.60;53.90;;;;;;5059119;28;20542;-74
2021/01/31 08:15:09;;;;;;;18.75;16.83;;;3.50;53.60;;;;;;5040278;28;20269;-75
2021/01/31 08:17:42;;;;;;;18.63;16.88;;;3.60;53.60;;;;;;5059454;28;20258;-72
2021/01/31 08:20:26;;;;;;;15.25;13.77;;;3.60;53.20;;;;;;5064771;28;20667;-74
2021/01/31 08:22:52;;;;;;;18.60;16.90;;;3.60;53.00;;;;;;5064549;28;20175;-75
2021/01/31 08:25:18;;;;;;;20.93;15.90;;;3.70;53.40;;;;;;5044272;28;20251;-74
2021/01/31 08:28:01;;;;;;;23.63;17.67;;;3.80;52.90;;;;;;5066411;28;20444;-74
2021/01/31 08:30:39;;;;;;;19.13;17.15;;;3.80;52.40;;;;;;5030324;28;20253;-75
2021/01/31 08:33:28;;;;;;;22.73;15.93;;;3.90;52.70;;;;;;5057550;28;20182;-75
2021/01/31 08:36:00;;;;;;;18.23;14.85;;;3.90;52.10;;;;;;5052455;28;20807;-70
2021/01/31 08:38:28;;;;;;;17.45;15.63;;;3.90;52.30;;;;;;5047486;28;20233;-73
2021/01/31 08:43:37;;;;;;;16.90;15.52;;;4.00;51.50;;;;;;5061761;28;20207;-72
2021/01/31 08:46:21;;;;;;;12.80;11.75;;;4.10;51.70;;;;;;5061831;28;20224;-74
2021/01/31 08:48:53;;;;;;;17.15;15.50;;;4.10;51.10;;;;;;5070450;28;20230;-70
2021/01/31 08:51:22;;;;;;;15.57;13.88;;;4.10;51.00;;;;;;5069423;28;20179;-72
2021/01/31 08:54:02;;;;;;;15.95;14.43;;;4.10;51.10;;;;;;5064556;28;20210;-74
2021/01/31 08:56:51;;;;;;;15.60;14.10;;;4.20;51.20;;;;;;5061030;28;20183;-74
2021/01/31 08:59:23;;;;;;;15.57;14.05;;;4.20;50.50;;;;;;5049367;28;20262;-72
2021/01/31 09:01:50;;;;;;;14.55;13.20;;;4.40;50.60;;;;;;5069454;28;20236;-73
2021/01/31 09:04:18;;;;;;;17.05;14.70;;;4.50;50.50;;;;;;5056694;28;20212;-70
2021/01/31 09:06:46;;;;;;;14.10;12.70;;;4.60;50.00;;;;;;5043005;28;20220;-70
2021/01/31 09:09:31;;;;;;;15.80;14.50;;;4.80;49.20;;;;;;5044507;28;20447;-73
2021/01/31 09:12:10;;;;;;;13.93;12.53;;;4.90;48.10;;;;;;5041886;28;20185;-69
2021/01/31 09:14:38;;;;;;;13.77;12.60;;;5.00;48.20;;;;;;5042347;28;20462;-69
2021/01/31 09:17:25;;;;;;;13.33;11.40;;;5.10;46.00;;;;;;5048844;28;20471;-72
2021/01/31 09:20:15;;;;;;;11.47;10.40;;;5.20;43.80;;;;;;5039935;28;20444;-70
2021/01/31 09:22:47;;;;;;;14.47;9.93;;;5.30;43.20;;;;;;5037970;28;20855;-72
2021/01/31 09:25:15;;;;;;;12.27;11.07;;;5.40;40.60;;;;;;5037373;28;20452;-72
2021/01/31 09:27:49;;;;;;;12.03;10.87;;;5.40;40.30;;;;;;5048604;28;20432;-71
2021/01/31 09:30:19;;;;;;;11.15;9.52;;;5.40;39.40;;;;;;5038117;28;20450;-70
2021/01/31 09:32:48;;;;;;;18.60;9.83;;;5.40;41.00;;;;;;5040883;28;20189;-72
2021/01/31 09:35:28;;;;;;;10.45;9.52;;;5.40;40.00;;;;;;5020545;28;20563;-73
2021/01/31 09:38:06;;;;;;;10.97;9.80;;;5.40;39.70;;;;;;5039333;28;20193;-74
2021/01/31 09:40:33;;;;;;;9.23;7.90;;;5.50;39.90;;;;;;5046029;28;20440;-73
2021/01/31 09:43:03;;;;;;;9.77;8.87;;;5.50;38.50;;;;;;5063305;28;20424;-69
2021/01/31 09:45:35;;;;;;;8.53;7.67;;;5.50;37.90;;;;;;5062196;28;20477;-69
2021/01/31 09:48:02;;;;;;;8.23;7.50;;;5.60;37.70;;;;;;5063737;28;20424;-68
2021/01/31 09:50:27;;;;;;;11.37;10.37;;;5.60;37.50;;;;;;5063915;28;20420;-71
2021/01/31 09:52:55;;;;;;;9.63;8.73;;;5.60;38.60;;;;;;5053390;28;20456;-69
2021/01/31 09:55:25;;;;;;;11.97;8.83;;;5.80;37.80;;;;;;5058997;28;20460;-68
2021/01/31 09:57:51;;;;;;;13.83;9.60;;;5.80;38.80;;;;;;5045683;28;20425;-69
2021/01/31 10:00:26;;;;;;;10.17;9.27;;;5.90;38.80;;;;;;5063162;28;20429;-70
2021/01/31 10:03:29;;;;;;;15.40;8.60;;;5.90;37.70;;;;;;5063597;28;20428;-71
2021/01/31 10:06:16;;;;;;;8.70;7.90;;;6.00;37.00;;;;;;5040779;28;20541;-70
2021/01/31 10:09:00;;;;;;;10.57;9.30;;;6.00;38.00;;;;;;5045798;28;20416;-69
2021/01/31 10:11:47;;;;;;;10.23;9.33;;;6.00;37.70;;;;;;5036821;28;20424;-69
2021/01/31 10:14:33;;;;;;;8.30;7.50;;;5.90;38.80;;;;;;5063915;28;20453;-72
2021/01/31 10:17:42;;;;;;;12.10;8.47;;;6.00;37.80;;;;;;5044089;28;20443;-70
2021/01/31 10:20:38;;;;;;;7.33;6.70;;;6.00;38.90;;;;;;5004522;28;20438;-69
2021/01/31 10:23:11;;;;;;;8.33;7.57;;;6.10;37.30;;;;;;5034331;28;20456;-70
2021/01/31 10:25:40;;;;;;;7.07;6.47;;;6.10;37.90;;;;;;5045611;28;20462;-68
2021/01/31 10:28:11;;;;;;;8.40;7.73;;;6.20;39.10;;;;;;5047282;28;20422;-71
2021/01/31 10:30:47;;;;;;;12.47;6.67;;;6.20;37.70;;;;;;5047585;28;20410;-72
2021/01/31 10:33:41;;;;;;;7.67;6.97;;;6.20;37.50;;;;;;5029241;28;20445;-70
2021/01/31 10:36:25;;;;;;;7.03;6.33;;;6.30;37.70;;;;;;5047088;28;20422;-69
2021/01/31 10:39:00;;;;;;;9.33;8.53;;;6.30;37.10;;;;;;5028529;28;20429;-71
2021/01/31 10:41:26;;;;;;;9.07;6.70;;;;;;;;;;5061195;28;20424;-71
2021/01/31 10:44:03;;;;;;;6.53;6.00;;;;;;;;;;5048485;28;20947;-68
2021/01/31 10:46:30;;;;;;;7.47;6.80;;;6.40;37.20;;;;;;5044423;28;20471;-68
2021/01/31 10:48:56;;;;;;;7.63;6.63;;;6.30;37.60;;;;;;5043870;28;20425;-72
2021/01/31 10:51:23;;;;;;;7.83;6.53;;;6.30;39.20;;;;;;5043258;28;20429;-71
2021/01/31 10:53:49;;;;;;;7.90;7.30;;;6.30;37.10;;;;;;5061373;28;20444;-69
2021/01/31 10:56:15;;;;;;;8.60;6.80;;;6.20;38.20;;;;;;5064276;28;20809;-69
2021/01/31 10:58:40;;;;;;;7.83;7.10;;;6.20;39.10;;;;;;5059096;28;20199;-71
2021/01/31 11:01:06;;;;;;;7.20;5.33;;;6.30;40.40;;;;;;5046213;28;20542;-73
2021/01/31 11:03:32;;;;;;;5.80;5.30;;;6.30;39.20;;;;;;5046840;28;20210;-74
2021/01/31 11:05:58;;;;;;;6.67;6.07;;;6.20;36.70;;;;;;5045734;28;20465;-73
2021/01/31 11:08:25;;;;;;;6.30;5.70;;;6.20;37.50;;;;;;5045739;28;20247;-73
2021/01/31 11:10:51;;;;;;;6.00;5.40;;;6.20;37.50;;;;;;5041661;28;20179;-71
2021/01/31 11:13:16;;;;;;;6.70;6.00;;;6.30;38.30;;;;;;5042249;28;21052;-73
2021/01/31 11:15:42;;;;;;;5.80;4.00;;;6.40;38.00;;;;;;5025610;28;20242;-73
2021/01/31 11:18:08;;;;;;;4.47;4.00;;;6.50;37.10;;;;;;5045751;28;20187;-72
2021/01/31 11:20:33;;;;;;;4.37;3.97;;;6.70;37.40;;;;;;5047286;28;20192;-73
2021/01/31 11:22:59;;;;;;;6.47;4.70;;;6.80;33.80;;;;;;5054002;28;20186;-70
2021/01/31 11:25:24;;;;;;;3.63;3.30;;;6.80;34.20;;;;;;5067749;28;20718;-72
2021/01/31 11:27:50;;;;;;;5.00;4.37;;;6.80;33.30;;;;;;5068121;28;20166;-72
2021/01/31 11:30:16;;;;;;;4.70;4.00;;;6.70;34.40;;;;;;5067026;28;20178;-73
2021/01/31 11:32:41;;;;;;;4.40;4.00;;;6.80;33.30;;;;;;5067483;28;20185;-72
2021/01/31 11:35:07;;;;;;;5.07;4.43;;;6.70;33.30;;;;;;5055853;28;20204;-70
2021/01/31 11:37:33;;;;;;;4.13;3.73;;;6.70;34.40;;;;;;5047002;28;20680;-73
2021/01/31 11:39:59;;;;;;;5.70;4.50;;;6.60;33.20;;;;;;5048583;28;20198;-73
2021/01/31 11:42:24;;;;;;;4.97;4.57;;;6.50;33.50;;;;;;5048934;28;20187;-73
2021/01/31 11:44:50;;;;;;;4.90;4.30;;;6.50;35.20;;;;;;5049402;28;20226;-73
2021/01/31 11:47:15;;;;;;;5.33;4.60;;;6.40;35.40;;;;;;5065849;28;20182;-70
2021/01/31 11:49:41;;;;;;;3.90;3.57;;;6.40;34.50;;;;;;5066515;28;20178;-72
2021/01/31 11:52:06;;;;;;;5.30;4.63;;;6.40;35.10;;;;;;5067267;28;20181;-73
2021/01/31 11:54:32;;;;;;;6.70;4.93;;;6.30;35.90;;;;;;5048147;28;20206;-71
2021/01/31 11:57:01;;;;;;;4.43;4.03;;;6.20;35.40;;;;;;5047035;28;20179;-72
2021/01/31 11:59:27;;;;;;;4.87;4.37;;;6.20;36.00;;;;;;5040232;28;20175;-73
2021/01/31 12:01:53;;;;;;;5.80;5.40;;;6.30;35.90;;;;;;5042605;28;20422;-73
2021/01/31 12:04:18;;;;;;;5.37;4.83;;;6.30;36.60;;;;;;5048395;28;20480;-73
2021/01/31 12:06:44;;;;;;;4.90;4.13;;;6.30;36.80;;;;;;5032771;28;20227;-71
2021/01/31 12:09:09;;;;;;;5.00;4.50;;;6.40;36.20;;;;;;5032921;28;20219;-71
2021/01/31 12:11:35;;;;;;;4.33;3.80;;;6.40;35.00;;;;;;5050139;28;20171;-73
2021/01/31 12:14:01;;;;;;;6.77;4.30;;;6.50;36.30;;;;;;5051066;28;20210;-73
2021/01/31 12:16:26;;;;;;;4.37;3.97;;;6.50;35.50;;;;;;5052567;28;20510;-72
2021/01/31 12:18:52;;;;;;;3.43;3.13;;;6.40;35.80;;;;;;5070220;28;20178;-71
2021/01/31 12:21:18;;;;;;;4.10;3.70;;;6.30;36.90;;;;;;5071168;28;20202;-72
2021/01/31 12:23:43;;;;;;;3.40;2.83;;;6.10;38.10;;;;;;5071202;28;20235;-71
2021/01/31 12:26:09;;;;;;;3.70;3.40;;;6.00;38.90;;;;;;5052804;28;20212;-70
2021/01/31 12:28:34;;;;;;;5.30;3.30;;;6.00;38.90;;;;;;5069727;28;20650;-69
2021/01/31 12:31:00;;;;;;;2.13;1.93;;;6.10;38.20;;;;;;5050006;28;20241;-73
2021/01/31 12:33:26;;;;;;;4.70;3.63;;;6.20;37.10;;;;;;5051135;28;20335;-70
2021/01/31 12:35:51;;;;;;;2.93;2.40;;;6.10;37.50;;;;;;5052123;28;20186;-72
2021/01/31 12:38:17;;;;;;;3.57;3.00;;;6.10;37.40;;;;;;5064129;28;20193;-70
2021/01/31 12:40:43;;;;;;;3.93;3.50;;;6.20;36.80;;;;;;5070654;28;20198;-71
2021/01/31 12:43:09;;;;;;;4.00;3.47;;;6.10;37.40;;;;;;5071357;28;20452;-69
2021/01/31 12:45:35;;;;;;;6.20;3.70;;;6.10;37.30;;;;;;5077808;28;20206;-71
2021/01/31 12:48:01;;;;;;;4.93;3.93;;;6.20;36.80;;;;;;5042672;28;20197;-71
2021/01/31 12:50:31;;;;;;;4.00;3.70;;;6.10;36.70;;;;;;5032871;28;20432;-70
2021/01/31 12:52:56;;;;;;;3.20;2.90;;;6.10;36.50;;;;;;5051281;28;20179;-73
2021/01/31 12:55:22;;;;;;;4.13;3.10;;;6.20;36.70;;;;;;5051939;28;20426;-70
2021/01/31 12:57:48;;;;;;;6.30;3.50;;;6.20;37.00;;;;;;5050989;28;20182;-70
2021/01/31 13:00:17;;;;;;;4.00;2.93;;;6.30;37.30;;;;;;5049897;28;20419;-71
2021/01/31 13:02:43;;;;;;;4.10;3.00;;;6.20;37.30;;;;;;5044196;28;20258;-72
2021/01/31 13:05:09;;;;;;;3.37;2.93;;;6.20;37.90;;;;;;5033938;28;20466;-72
2021/01/31 13:07:35;;;;;;;3.67;2.97;;;6.30;37.70;;;;;;5065674;28;20570;-71
2021/01/31 13:10:02;;;;;;;3.60;2.50;;;6.30;37.20;;;;;;5046633;28;20421;-70
2021/01/31 13:12:28;;;;;;;3.80;3.40;;;6.30;37.40;;;;;;5049240;28;20417;-69
2021/01/31 13:14:53;;;;;;;3.70;2.80;;;6.30;37.70;;;;;;5049006;28;20527;-71
2021/01/31 13:17:19;;;;;;;3.27;2.97;;;6.30;37.40;;;;;;5054612;28;20247;-72